createdAt,value
2018-01-28T00:00:43.242Z,7.24
2018-01-28T00:03:11.595Z,7.39
2018-01-28T00:05:39.909Z,7.37
2018-01-28T00:08:08.258Z,7.35
2018-01-28T00:10:36.782Z,7.26
2018-01-28T00:13:05.140Z,7.41
2018-01-28T00:15:33.453Z,7.68
2018-01-28T00:18:02.608Z,7.55
2018-01-28T00:20:30.928Z,7.38
2018-01-28T00:22:59.278Z,7.39
2018-01-28T00:25:27.701Z,7.54
2018-01-28T00:27:56.037Z,7.55
2018-01-28T00:30:24.387Z,7.43
2018-01-28T00:32:53.333Z,7.40
2018-01-28T00:35:22.431Z,7.70
2018-01-28T00:37:50.744Z,7.66
2018-01-28T00:40:19.179Z,7.85
2018-01-28T00:42:47.493Z,7.86
2018-01-28T00:45:15.785Z,7.81
2018-01-28T00:47:44.113Z,7.64
2018-01-28T00:50:13.229Z,7.76
2018-01-28T00:52:42.309Z,7.80
2018-01-28T00:55:11.922Z,7.71
2018-01-28T00:57:40.270Z,7.65
2018-01-28T01:00:08.604Z,7.61
2018-01-28T01:02:36.962Z,7.53
2018-01-28T01:05:05.274Z,7.75
2018-01-28T01:07:33.587Z,7.48
2018-01-28T01:10:01.929Z,7.39
2018-01-28T01:12:30.266Z,7.66
2018-01-28T01:14:58.586Z,7.70
2018-01-28T01:17:26.985Z,7.60
2018-01-28T01:19:55.317Z,7.63
2018-01-28T01:22:23.718Z,7.56
2018-01-28T01:24:52.117Z,7.61
2018-01-28T01:27:20.454Z,7.73
2018-01-28T01:29:48.797Z,7.68
2018-01-28T01:32:17.193Z,7.56
2018-01-28T01:34:46.291Z,7.89
2018-01-28T01:37:15.380Z,7.93
2018-01-28T01:39:43.897Z,8.05
2018-01-28T01:42:12.283Z,7.84
2018-01-28T01:44:40.610Z,7.88
2018-01-28T01:47:08.978Z,7.80
2018-01-28T01:49:37.294Z,7.81
2018-01-28T01:52:06.387Z,7.80
2018-01-28T01:54:34.787Z,7.64
2018-01-28T01:57:03.128Z,7.76
2018-01-28T01:59:31.461Z,7.79
2018-01-28T02:02:00.232Z,7.84
2018-01-28T02:04:28.554Z,7.79
2018-01-28T02:06:56.908Z,7.83
2018-01-28T02:09:25.244Z,7.90
2018-01-28T02:11:54.343Z,7.84
2018-01-28T02:14:23.438Z,7.86
2018-01-28T02:16:52.544Z,7.83
2018-01-28T02:19:21.636Z,7.90
2018-01-28T02:21:50.717Z,7.92
2018-01-28T02:24:20.153Z,7.92
2018-01-28T02:26:48.498Z,8.11
2018-01-28T02:29:16.855Z,7.96
2018-01-28T02:31:45.234Z,8.15
2018-01-28T02:34:14.426Z,8.33
2018-01-28T02:36:42.741Z,8.30
2018-01-28T02:39:11.082Z,8.61
2018-01-28T02:41:39.424Z,8.31
2018-01-28T02:44:07.809Z,8.29
2018-01-28T02:46:36.275Z,8.19
2018-01-28T02:49:04.953Z,8.25
2018-01-28T02:51:34.091Z,8.35
2018-01-28T02:54:02.495Z,8.11
2018-01-28T02:56:30.790Z,8.21
2018-01-28T02:58:59.088Z,8.33
2018-01-28T03:01:27.443Z,8.47
2018-01-28T03:03:55.772Z,8.47
2018-01-28T03:06:24.160Z,8.48
2018-01-28T03:08:52.980Z,8.59
2018-01-28T03:11:21.303Z,8.69
2018-01-28T03:13:49.640Z,8.76
2018-01-28T03:16:17.957Z,8.66
2018-01-28T03:18:47.035Z,8.45
2018-01-28T03:21:15.348Z,8.51
2018-01-28T03:23:43.740Z,8.50
2018-01-28T03:26:12.045Z,8.45
2018-01-28T03:28:40.332Z,8.57
2018-01-28T03:31:08.776Z,8.61
2018-01-28T03:33:37.097Z,8.52
2018-01-28T03:36:05.427Z,8.48
2018-01-28T03:38:33.787Z,8.37
2018-01-28T03:41:02.128Z,8.54
2018-01-28T03:43:30.484Z,8.73
2018-01-28T03:45:58.852Z,8.78
2018-01-28T03:48:27.152Z,8.86
2018-01-28T03:50:55.479Z,8.83
2018-01-28T03:53:23.886Z,8.94
2018-01-28T03:55:52.204Z,9.00
2018-01-28T03:58:20.532Z,9.07
2018-01-28T04:00:48.899Z,9.10
2018-01-28T04:03:17.215Z,9.05
2018-01-28T04:05:46.300Z,8.93
2018-01-28T04:08:14.615Z,8.96
2018-01-28T04:10:42.982Z,8.85
2018-01-28T04:13:11.355Z,9.07
2018-01-28T04:15:40.157Z,9.08
2018-01-28T04:18:08.463Z,9.11
2018-01-28T04:20:37.548Z,8.98
2018-01-28T04:23:06.624Z,8.93
2018-01-28T04:25:34.949Z,9.14
2018-01-28T04:28:03.288Z,9.27
2018-01-28T04:30:31.622Z,9.38
2018-01-28T04:32:59.949Z,9.39
2018-01-28T04:35:28.249Z,9.08
2018-01-28T04:37:57.451Z,9.18
2018-01-28T04:40:25.773Z,9.28
2018-01-28T04:42:54.278Z,9.16
2018-01-28T04:45:22.759Z,9.21
2018-01-28T04:47:51.211Z,9.14
2018-01-28T04:50:19.536Z,9.26
2018-01-28T04:52:47.905Z,9.21
2018-01-28T04:55:16.984Z,9.34
2018-01-28T04:57:46.072Z,9.18
2018-01-28T05:00:14.904Z,9.07
2018-01-28T05:02:43.231Z,9.30
2018-01-28T05:05:11.547Z,9.21
2018-01-28T05:07:39.896Z,9.35
2018-01-28T05:10:08.212Z,9.32
2018-01-28T05:12:36.535Z,9.04
2018-01-28T05:15:04.847Z,9.25
2018-01-28T05:17:33.168Z,9.42
2018-01-28T05:20:01.484Z,9.28
2018-01-28T05:22:30.088Z,9.26
2018-01-28T05:24:58.450Z,9.20
2018-01-28T05:27:26.762Z,9.26
2018-01-28T05:29:55.193Z,9.45
2018-01-28T05:32:23.521Z,9.40
2018-01-28T05:34:51.857Z,9.33
2018-01-28T05:37:20.237Z,9.64
2018-01-28T05:39:48.616Z,9.70
2018-01-28T05:42:16.932Z,9.80
2018-01-28T05:44:45.346Z,9.75
2018-01-28T05:47:13.655Z,9.60
2018-01-28T05:49:41.961Z,9.73
2018-01-28T05:52:10.293Z,9.76
2018-01-28T05:54:38.610Z,9.76
2018-01-28T05:57:06.954Z,9.77
2018-01-28T05:59:35.328Z,9.76
2018-01-28T06:02:03.680Z,9.83
2018-01-28T06:04:31.980Z,9.79
2018-01-28T06:07:01.054Z,9.90
2018-01-28T06:09:29.406Z,10.01
2018-01-28T06:11:57.732Z,10.16
2018-01-28T06:14:26.101Z,10.09
2018-01-28T06:16:54.434Z,9.86
2018-01-28T06:19:22.749Z,10.01
2018-01-28T06:21:51.958Z,10.09
2018-01-28T06:24:20.269Z,9.96
2018-01-28T06:26:48.598Z,10.07
2018-01-28T06:29:17.808Z,10.03
2018-01-28T06:31:46.155Z,10.20
2018-01-28T06:34:15.281Z,10.22
2018-01-28T06:36:44.549Z,10.29
2018-01-28T06:39:12.935Z,10.19
2018-01-28T06:41:42.094Z,10.22
2018-01-28T06:44:10.478Z,10.12
2018-01-28T06:46:38.902Z,10.22
2018-01-28T06:49:08.058Z,10.04
2018-01-28T06:51:37.176Z,10.15
2018-01-28T06:54:05.630Z,10.05
2018-01-28T06:56:34.141Z,10.02
2018-01-28T06:59:02.572Z,10.03
2018-01-28T07:01:30.884Z,10.11
2018-01-28T07:03:59.261Z,10.16
2018-01-28T07:06:27.762Z,10.05
2018-01-28T07:08:56.149Z,10.06
2018-01-28T07:11:24.525Z,9.91
2018-01-28T07:13:53.104Z,10.03
2018-01-28T07:16:21.509Z,10.08
2018-01-28T07:18:50.568Z,9.92
2018-01-28T07:21:19.061Z,9.95
2018-01-28T07:23:47.428Z,10.14
2018-01-28T07:26:15.798Z,10.19
2018-01-28T07:28:44.294Z,10.19
2018-01-28T07:31:12.670Z,10.25
2018-01-28T07:33:41.072Z,10.32
2018-01-28T07:36:09.643Z,10.15
2018-01-28T07:38:37.971Z,10.12
2018-01-28T07:41:06.535Z,10.12
2018-01-28T07:43:34.868Z,9.92
2018-01-28T07:46:03.240Z,9.91
2018-01-28T07:48:31.644Z,10.05
2018-01-28T07:51:00.029Z,10.04
2018-01-28T07:53:28.393Z,9.98
2018-01-28T07:55:56.701Z,10.05
2018-01-28T07:58:25.137Z,10.11
2018-01-28T08:00:53.463Z,10.23
2018-01-28T08:03:21.909Z,10.14
2018-01-28T08:05:50.348Z,10.25
2018-01-28T08:08:23.081Z,10.14
2018-01-28T08:10:56.867Z,10.17
2018-01-28T08:16:31.967Z,10.42
2018-01-28T08:19:01.038Z,10.49
2018-01-28T08:21:29.340Z,10.48
2018-01-28T08:23:58.108Z,10.50
2018-01-28T08:26:28.696Z,10.56
2018-01-28T08:28:57.939Z,10.51
2018-01-28T08:31:26.284Z,10.56
2018-01-28T08:33:54.626Z,10.52
2018-01-28T08:36:23.719Z,10.70
2018-01-28T08:38:52.882Z,10.79
2018-01-28T08:41:21.228Z,10.97
2018-01-28T08:43:49.616Z,10.87
2018-01-28T08:46:17.983Z,11.01
2018-01-28T08:48:46.305Z,11.26
2018-01-28T08:51:14.620Z,11.27
2018-01-28T08:53:43.800Z,10.98
2018-01-28T08:56:12.147Z,11.10
2018-01-28T08:58:40.511Z,11.02
2018-01-28T09:01:08.948Z,11.16
2018-01-28T09:03:38.034Z,11.32
2018-01-28T09:06:06.356Z,11.23
2018-01-28T09:08:34.694Z,11.22
2018-01-28T09:11:03.035Z,11.69
2018-01-28T09:13:31.360Z,11.91
2018-01-28T09:16:00.982Z,12.09
2018-01-28T09:18:29.301Z,11.92
2018-01-28T09:20:57.601Z,11.70
2018-01-28T09:23:26.223Z,11.68
2018-01-28T09:25:54.565Z,11.70
2018-01-28T09:28:22.896Z,11.32
2018-01-28T09:30:51.237Z,11.41
2018-01-28T09:33:19.589Z,11.56
2018-01-28T09:35:48.674Z,11.70
2018-01-28T09:38:17.028Z,11.73
2018-01-28T09:40:45.365Z,11.57
2018-01-28T09:43:13.719Z,11.68
2018-01-28T09:45:42.135Z,11.72
2018-01-28T09:48:10.484Z,11.86
2018-01-28T09:50:39.594Z,11.95
2018-01-28T09:53:07.952Z,12.64
2018-01-28T09:55:36.270Z,13.54
2018-01-28T09:58:04.628Z,13.17
2018-01-28T10:00:33.013Z,13.49
2018-01-28T10:03:01.330Z,14.47
2018-01-28T10:05:29.709Z,14.26
2018-01-28T10:07:58.474Z,13.84
2018-01-28T10:10:26.796Z,13.19
2018-01-28T10:12:55.160Z,12.77
2018-01-28T10:15:23.496Z,12.51
2018-01-28T10:17:52.578Z,12.86
2018-01-28T10:20:20.896Z,13.63
2018-01-28T10:22:49.259Z,13.98
2018-01-28T10:25:18.345Z,14.62
2018-01-28T10:27:47.434Z,15.63
2018-01-28T10:30:15.962Z,16.46
2018-01-28T10:32:44.267Z,16.68
2018-01-28T10:35:12.604Z,16.13
2018-01-28T10:37:40.985Z,15.91
2018-01-28T10:40:09.328Z,15.30
2018-01-28T10:42:37.643Z,15.29
2018-01-28T10:45:05.989Z,15.01
2018-01-28T10:47:34.292Z,14.68
2018-01-28T10:50:03.414Z,14.41
2018-01-28T10:52:31.832Z,14.50
2018-01-28T10:55:00.180Z,13.79
2018-01-28T10:57:28.496Z,13.67
2018-01-28T10:59:56.835Z,13.61
2018-01-28T11:02:25.174Z,13.30
2018-01-28T11:04:54.269Z,13.06
2018-01-28T11:07:23.402Z,13.24
2018-01-28T11:09:51.721Z,13.28
2018-01-28T11:12:20.104Z,13.37
2018-01-28T11:14:49.013Z,13.36
2018-01-28T11:17:18.120Z,13.27
2018-01-28T11:19:47.232Z,13.17
2018-01-28T11:22:15.611Z,13.24
2018-01-28T11:24:43.957Z,13.07
2018-01-28T11:27:13.081Z,13.12
2018-01-28T11:29:41.436Z,13.15
2018-01-28T11:32:10.583Z,12.91
2018-01-28T11:34:38.894Z,12.83
2018-01-28T11:37:07.287Z,12.90
2018-01-28T11:39:36.388Z,13.01
2018-01-28T11:42:04.708Z,12.89
2018-01-28T11:44:33.049Z,12.81
2018-01-28T11:47:02.127Z,12.37
2018-01-28T11:49:30.470Z,12.54
2018-01-28T11:51:59.069Z,12.87
2018-01-28T11:54:27.926Z,13.34
2018-01-28T11:56:56.285Z,13.30
2018-01-28T11:59:25.450Z,13.62
2018-01-28T12:01:53.805Z,13.55
2018-01-28T12:04:22.184Z,13.23
2018-01-28T12:06:50.525Z,13.12
2018-01-28T12:09:19.671Z,13.31
2018-01-28T12:11:48.029Z,12.80
2018-01-28T12:14:16.454Z,12.98
2018-01-28T12:16:45.698Z,12.92
2018-01-28T12:19:14.013Z,12.93
2018-01-28T12:21:42.417Z,12.97
2018-01-28T12:24:10.750Z,12.60
2018-01-28T12:26:39.080Z,12.68
2018-01-28T12:29:08.429Z,12.51
2018-01-28T12:31:36.761Z,12.53
2018-01-28T12:34:05.067Z,12.53
2018-01-28T12:36:33.443Z,12.67
2018-01-28T12:39:01.788Z,12.98
2018-01-28T12:41:30.121Z,12.69
2018-01-28T12:43:58.515Z,13.04
2018-01-28T12:46:26.809Z,13.20
2018-01-28T12:48:55.139Z,12.96
2018-01-28T12:51:23.506Z,12.95
2018-01-28T12:53:51.848Z,13.05
2018-01-28T12:56:20.172Z,12.68
2018-01-28T12:58:48.540Z,12.60
2018-01-28T13:01:16.865Z,12.64
2018-01-28T13:03:45.204Z,12.26
2018-01-28T13:06:14.178Z,12.44
2018-01-28T13:08:42.506Z,12.54
2018-01-28T13:11:10.860Z,12.53
2018-01-28T13:13:39.213Z,12.75
2018-01-28T13:16:08.336Z,12.32
2018-01-28T13:18:36.718Z,12.42
2018-01-28T13:21:05.080Z,12.25
2018-01-28T13:23:34.158Z,12.37
2018-01-28T13:26:02.494Z,12.32
2018-01-28T13:28:31.247Z,12.25
2018-01-28T13:30:59.559Z,12.57
2018-01-28T13:33:27.908Z,12.51
2018-01-28T13:35:56.230Z,12.77
2018-01-28T13:38:24.552Z,12.79
2018-01-28T13:40:52.869Z,12.89
2018-01-28T13:43:21.696Z,12.69
2018-01-28T13:45:50.010Z,12.74
2018-01-28T13:48:18.330Z,12.86
2018-01-28T13:50:47.136Z,12.47
2018-01-28T13:53:15.454Z,12.65
2018-01-28T13:55:43.806Z,12.57
2018-01-28T13:58:12.918Z,12.37
2018-01-28T14:00:42.022Z,12.29
2018-01-28T14:03:10.364Z,12.18
2018-01-28T14:05:38.704Z,12.11
2018-01-28T14:08:07.062Z,11.98
2018-01-28T14:10:35.382Z,12.09
2018-01-28T14:13:03.961Z,12.00
2018-01-28T14:15:32.289Z,11.90
2018-01-28T14:18:01.550Z,12.00
2018-01-28T14:20:30.176Z,11.99
2018-01-28T14:22:58.487Z,12.09
2018-01-28T14:25:26.803Z,12.13
2018-01-28T14:27:55.158Z,12.18
2018-01-28T14:30:23.502Z,12.30
2018-01-28T14:32:51.825Z,12.41
2018-01-28T14:35:21.054Z,12.25
2018-01-28T14:37:49.378Z,12.22
2018-01-28T14:40:17.694Z,12.22
2018-01-28T14:42:46.021Z,12.23
2018-01-28T14:45:14.328Z,12.01
2018-01-28T14:47:42.640Z,11.97
2018-01-28T14:50:10.969Z,11.92
2018-01-28T14:52:39.300Z,11.91
2018-01-28T14:55:07.624Z,11.79
2018-01-28T14:57:36.477Z,11.67
2018-01-28T15:00:05.590Z,11.80
2018-01-28T15:02:33.951Z,11.72
2018-01-28T15:05:02.351Z,11.61
2018-01-28T15:07:30.752Z,11.60
2018-01-28T15:09:59.095Z,11.60
2018-01-28T15:12:28.190Z,11.77
2018-01-28T15:14:57.279Z,11.65
2018-01-28T15:17:26.378Z,11.78
2018-01-28T15:19:55.583Z,11.75
2018-01-28T15:22:23.947Z,11.94
2018-01-28T15:24:52.265Z,11.81
2018-01-28T15:27:20.618Z,11.69
2018-01-28T15:29:48.935Z,11.62
2018-01-28T15:32:17.274Z,11.50
2018-01-28T15:34:46.870Z,11.52
2018-01-28T15:37:15.196Z,11.47
2018-01-28T15:39:43.610Z,11.56
2018-01-28T15:42:12.317Z,11.36
2018-01-28T15:44:40.647Z,11.34
2018-01-28T15:47:08.950Z,11.49
2018-01-28T15:49:37.303Z,11.61
2018-01-28T15:52:05.640Z,11.59
2018-01-28T15:54:33.955Z,11.56
2018-01-28T15:57:02.300Z,11.34
2018-01-28T15:59:30.606Z,11.30
2018-01-28T16:01:58.915Z,11.35
2018-01-28T16:04:27.429Z,11.52
2018-01-28T16:06:56.500Z,11.32
2018-01-28T16:09:24.849Z,11.30
2018-01-28T16:11:53.569Z,11.19
2018-01-28T16:14:21.905Z,11.15
2018-01-28T16:16:50.213Z,11.30
2018-01-28T16:19:18.562Z,11.25
2018-01-28T16:21:46.869Z,10.99
2018-01-28T16:24:15.172Z,11.07
2018-01-28T16:26:43.955Z,11.13
2018-01-28T16:29:12.261Z,11.13
2018-01-28T16:31:40.576Z,10.84
2018-01-28T16:34:08.955Z,10.92
2018-01-28T16:36:37.317Z,11.05
2018-01-28T16:39:06.331Z,10.97
2018-01-28T16:41:34.680Z,10.96
2018-01-28T16:44:03.015Z,10.71
2018-01-28T16:46:31.376Z,10.73
2018-01-28T16:49:00.500Z,10.89
2018-01-28T16:54:03.263Z,10.84
2018-01-28T16:56:31.619Z,10.86
2018-01-28T16:58:59.980Z,11.17
2018-01-28T17:01:28.342Z,11.07
2018-01-28T17:03:56.679Z,10.78
2018-01-28T17:06:25.036Z,10.67
2018-01-28T17:08:53.667Z,10.80
2018-01-28T17:11:22.001Z,10.99
2018-01-28T17:13:50.314Z,10.96
2018-01-28T17:16:18.656Z,10.84
2018-01-28T17:18:46.988Z,10.84
2018-01-28T17:21:15.334Z,10.77
2018-01-28T17:23:44.182Z,10.72
2018-01-28T17:26:12.483Z,10.59
2018-01-28T17:28:40.807Z,10.41
2018-01-28T17:31:09.644Z,10.56
2018-01-28T17:33:37.993Z,10.63
2018-01-28T17:36:07.099Z,10.63
2018-01-28T17:38:36.239Z,10.38
2018-01-28T17:41:04.598Z,10.36
2018-01-28T17:43:32.972Z,10.67
2018-01-28T17:46:01.321Z,10.94
2018-01-28T17:48:29.675Z,10.77
2018-01-28T17:50:58.014Z,10.68
2018-01-28T17:53:26.780Z,10.73
2018-01-28T17:55:55.128Z,10.83
2018-01-28T17:58:23.470Z,10.87
2018-01-28T18:00:52.167Z,10.97
2018-01-28T18:03:20.462Z,10.96
2018-01-28T18:05:48.792Z,11.10
2018-01-28T18:08:17.168Z,11.08
2018-01-28T18:10:45.528Z,11.34
2018-01-28T18:13:13.866Z,11.12
2018-01-28T18:15:43.512Z,11.10
2018-01-28T18:18:12.629Z,11.09
2018-01-28T18:20:40.942Z,11.30
2018-01-28T18:23:09.310Z,11.33
2018-01-28T18:25:37.627Z,11.44
2018-01-28T18:28:06.332Z,11.33
2018-01-28T18:30:34.731Z,11.30
2018-01-28T18:33:03.088Z,11.21
2018-01-28T18:35:31.417Z,11.32
2018-01-28T18:38:00.252Z,11.33
2018-01-28T18:40:29.404Z,11.30
2018-01-28T18:42:57.750Z,11.23
2018-01-28T18:45:26.172Z,11.30
2018-01-28T18:47:54.530Z,11.32
2018-01-28T18:50:22.853Z,11.49
2018-01-28T18:52:51.216Z,11.42
2018-01-28T18:55:19.570Z,11.76
2018-01-28T18:57:47.950Z,11.64
2018-01-28T19:00:16.693Z,11.65
2018-01-28T19:02:45.815Z,11.77
2018-01-28T19:05:14.170Z,11.63
2018-01-28T19:07:43.303Z,11.44
2018-01-28T19:10:11.678Z,11.61
2018-01-28T19:12:40.029Z,11.64
2018-01-28T19:15:09.558Z,11.72
2018-01-28T19:17:37.933Z,11.76
2018-01-28T19:20:06.261Z,11.85
2018-01-28T19:22:34.693Z,11.87
2018-01-28T19:25:03.060Z,11.87
2018-01-28T19:27:31.383Z,12.01
2018-01-28T19:29:59.737Z,12.00
2018-01-28T19:32:28.054Z,12.04
2018-01-28T19:34:56.385Z,12.15
2018-01-28T19:37:24.777Z,12.09
2018-01-28T19:39:53.123Z,12.07
2018-01-28T19:42:22.212Z,12.12
2018-01-28T19:44:50.637Z,12.11
2018-01-28T19:47:18.992Z,12.05
2018-01-28T19:49:47.346Z,12.01
2018-01-28T19:52:15.938Z,11.97
2018-01-28T19:54:44.285Z,12.16
2018-01-28T19:57:12.644Z,12.03
2018-01-28T19:59:40.974Z,12.17
2018-01-28T20:02:09.295Z,12.15
2018-01-28T20:04:37.624Z,12.19
2018-01-28T20:07:06.342Z,12.15
2018-01-28T20:09:34.668Z,12.13
2018-01-28T20:12:03.030Z,12.21
2018-01-28T20:14:31.416Z,12.37
2018-01-28T20:16:59.813Z,12.52
2018-01-28T20:19:28.164Z,12.37
2018-01-28T20:21:56.516Z,12.27
2018-01-28T20:24:24.914Z,12.33
2018-01-28T20:26:53.224Z,12.34
2018-01-28T20:29:22.156Z,12.39
2018-01-28T20:31:50.508Z,12.48
2018-01-28T20:34:18.872Z,12.35
2018-01-28T20:36:47.457Z,12.53
2018-01-28T20:39:15.776Z,12.41
2018-01-28T20:41:44.889Z,12.52
2018-01-28T20:44:13.966Z,12.60
2018-01-28T20:46:43.073Z,12.47
2018-01-28T20:49:12.207Z,12.43
2018-01-28T20:51:40.675Z,12.48
2018-01-28T20:54:09.018Z,12.58
2018-01-28T20:56:37.346Z,12.63
2018-01-28T20:59:05.742Z,12.62
2018-01-28T21:01:34.087Z,12.46
2018-01-28T21:04:02.429Z,12.55
2018-01-28T21:06:31.510Z,12.56
2018-01-28T21:08:59.815Z,12.56
2018-01-28T21:11:28.905Z,12.66
2018-01-28T21:13:58.498Z,12.67
2018-01-28T21:16:26.831Z,12.57
2018-01-28T21:18:55.150Z,12.48
2018-01-28T21:21:24.259Z,12.68
2018-01-28T21:23:53.363Z,12.66
2018-01-28T21:26:22.459Z,12.57
2018-01-28T21:28:52.398Z,12.67
2018-01-28T21:31:20.733Z,12.65
2018-01-28T21:33:49.057Z,12.54
2018-01-28T21:36:17.461Z,12.51
2018-01-28T21:38:45.996Z,12.62
2018-01-28T21:41:14.337Z,12.72
2018-01-28T21:43:42.687Z,12.58
2018-01-28T21:46:11.743Z,12.76
2018-01-28T21:48:40.122Z,12.81
2018-01-28T21:51:08.480Z,12.81
2018-01-28T21:53:37.604Z,12.84
2018-01-28T21:56:07.496Z,12.79
2018-01-28T21:58:36.675Z,12.82
2018-01-28T22:01:04.980Z,12.78
2018-01-28T22:03:33.312Z,12.86
2018-01-28T22:06:01.646Z,12.82
2018-01-28T22:08:30.704Z,12.78
2018-01-28T22:10:59.042Z,12.83
2018-01-28T22:13:27.383Z,12.66
2018-01-28T22:15:55.701Z,12.68
2018-01-28T22:18:24.034Z,12.64
2018-01-28T22:20:52.573Z,12.74
2018-01-28T22:23:20.911Z,12.73
2018-01-28T22:25:49.239Z,12.65
2018-01-28T22:28:17.595Z,12.54
2018-01-28T22:30:45.941Z,12.58
2018-01-28T22:33:14.261Z,12.59
2018-01-28T22:35:42.590Z,12.76
2018-01-28T22:38:10.909Z,12.75
2018-01-28T22:40:39.242Z,12.81
2018-01-28T22:43:07.664Z,12.73
2018-01-28T22:45:36.048Z,12.59
2018-01-28T22:48:04.539Z,12.62
2018-01-28T22:50:32.901Z,12.55
2018-01-28T22:53:01.246Z,12.57
2018-01-28T22:55:29.555Z,12.53
2018-01-28T22:57:57.903Z,12.71
2018-01-28T23:00:26.198Z,12.70
2018-01-28T23:02:55.283Z,12.70
2018-01-28T23:05:24.630Z,12.63
2018-01-28T23:07:52.948Z,12.63
2018-01-28T23:10:21.295Z,12.58
2018-01-28T23:12:49.673Z,12.69
2018-01-28T23:15:18.017Z,12.58
2018-01-28T23:17:46.326Z,12.54
2018-01-28T23:20:14.684Z,12.62
2018-01-28T23:22:42.991Z,12.86
2018-01-28T23:25:11.286Z,13.06
2018-01-28T23:27:40.001Z,12.93
2018-01-28T23:30:08.301Z,12.74
2018-01-28T23:32:36.643Z,12.82
2018-01-28T23:35:05.478Z,12.77
2018-01-28T23:37:33.798Z,12.88
2018-01-28T23:40:02.142Z,12.93
2018-01-28T23:42:31.012Z,12.89
2018-01-28T23:44:59.332Z,13.01
2018-01-28T23:47:27.666Z,12.94
2018-01-28T23:49:56.175Z,12.76
2018-01-28T23:52:24.563Z,12.86
2018-01-28T23:54:53.159Z,12.88
2018-01-28T23:57:21.760Z,12.81
2018-01-28T23:59:50.077Z,12.99
